Kuqa, China
Current Conditions -  °F | °C
As of 7:00 AM on Friday 21 Nov 2014 (Local Time) from ZWWW Reporting Station
Smoke Smoke  
Wind Chill: 28°   Ceiling: 2300
Heat Index: 28°   Visibility: 1.1mi
Dew Point: 23°   Wind: 2mph
Humidity: 80%   Direction: 20°NNE
Pressure: 30.3"   Gusts: NA
Location:  41.72°N, 82.95°E
Report Text: ZWWW 202300Z 02001MPS 1800 FU BKN023 M02/M05 Q1026 NOSIG
Loading
Personal Weather Stations






























Interactive Weather Map New forecast layout! Learn more

10-Day Weather Forecast

Advertisements
Track Severe Weather on mobile